sensor_id;sensor_type;location;lat;lon;timestamp;pressure;altitude;pressure_sealevel;temperature;humidity
80699;BME280;70062;51.658;5.658;2023-11-18T00:00:25;102236.80;;;23.38;36.75
80699;BME280;70062;51.658;5.658;2023-11-18T00:02:50;102233.13;;;23.20;36.79
80699;BME280;70062;51.658;5.658;2023-11-18T00:05:16;102233.45;;;23.00;36.97
80699;BME280;70062;51.658;5.658;2023-11-18T00:07:41;102229.79;;;22.77;37.24
80699;BME280;70062;51.658;5.658;2023-11-18T00:10:07;102228.02;;;22.52;37.51
80699;BME280;70062;51.658;5.658;2023-11-18T00:12:34;102230.43;;;22.28;37.85
80699;BME280;70062;51.658;5.658;2023-11-18T00:15:03;102234.90;;;22.03;38.21
80699;BME280;70062;51.658;5.658;2023-11-18T00:17:32;102236.67;;;21.76;38.47
80699;BME280;70062;51.658;5.658;2023-11-18T00:23:31;102235.05;;;21.41;39.88
80699;BME280;70062;51.658;5.658;2023-11-18T00:25:56;102223.91;;;21.90;39.78
80699;BME280;70062;51.658;5.658;2023-11-18T00:28:22;102221.66;;;22.65;39.00
80699;BME280;70062;51.658;5.658;2023-11-18T00:30:48;102220.78;;;23.33;37.98
80699;BME280;70062;51.658;5.658;2023-11-18T00:33:13;102215.17;;;23.83;36.99
80699;BME280;70062;51.658;5.658;2023-11-18T00:35:38;102212.52;;;24.14;36.36
80699;BME280;70062;51.658;5.658;2023-11-18T00:38:04;102202.27;;;24.30;36.00
80699;BME280;70062;51.658;5.658;2023-11-18T00:40:29;102205.13;;;24.33;35.64
80699;BME280;70062;51.658;5.658;2023-11-18T00:42:56;102210.46;;;24.27;35.52
80699;BME280;70062;51.658;5.658;2023-11-18T00:49:14;102210.81;;;23.84;35.55
80699;BME280;70062;51.658;5.658;2023-11-18T00:51:48;102212.48;;;23.58;35.79
80699;BME280;70062;51.658;5.658;2023-11-18T00:54:15;102214.77;;;23.31;36.10
80699;BME280;70062;51.658;5.658;2023-11-18T00:56:45;102219.70;;;23.04;36.47
80699;BME280;70062;51.658;5.658;2023-11-18T00:59:10;102215.15;;;22.72;36.81
80699;BME280;70062;51.658;5.658;2023-11-18T01:01:42;102218.04;;;22.45;37.13
80699;BME280;70062;51.658;5.658;2023-11-18T01:04:11;102225.80;;;22.17;37.55
80699;BME280;70062;51.658;5.658;2023-11-18T01:06:41;102238.39;;;21.89;38.14
80699;BME280;70062;51.658;5.658;2023-11-18T01:09:08;102241.73;;;21.62;38.54
80699;BME280;70062;51.658;5.658;2023-11-18T01:11:49;102237.66;;;21.28;38.99
80699;BME280;70062;51.658;5.658;2023-11-18T01:14:14;102236.23;;;21.09;39.87
80699;BME280;70062;51.658;5.658;2023-11-18T01:16:40;102242.01;;;21.34;40.08
80699;BME280;70062;51.658;5.658;2023-11-18T01:19:09;102242.46;;;21.99;39.70
80699;BME280;70062;51.658;5.658;2023-11-18T01:21:35;102241.02;;;22.78;38.78
80699;BME280;70062;51.658;5.658;2023-11-18T01:24:01;102238.39;;;23.57;37.48
80699;BME280;70062;51.658;5.658;2023-11-18T01:26:29;102235.17;;;23.94;36.68
80699;BME280;70062;51.658;5.658;2023-11-18T01:29:02;102236.92;;;24.26;35.98
80699;BME280;70062;51.658;5.658;2023-11-18T01:31:28;102235.45;;;24.42;35.45
80699;BME280;70062;51.658;5.658;2023-11-18T01:33:56;102239.16;;;24.44;35.16
80699;BME280;70062;51.658;5.658;2023-11-18T01:36:22;102244.49;;;24.36;35.05
80699;BME280;70062;51.658;5.658;2023-11-18T01:39:12;102243.52;;;24.22;35.02
80699;BME280;70062;51.658;5.658;2023-11-18T01:41:39;102240.33;;;23.98;35.16
80699;BME280;70062;51.658;5.658;2023-11-18T01:44:05;102234.52;;;23.75;35.19
80699;BME280;70062;51.658;5.658;2023-11-18T01:46:30;102229.14;;;23.49;35.60
80699;BME280;70062;51.658;5.658;2023-11-18T01:49:03;102231.61;;;23.22;36.03
80699;BME280;70062;51.658;5.658;2023-11-18T01:51:33;102235.70;;;22.82;36.50
80699;BME280;70062;51.658;5.658;2023-11-18T01:54:00;102230.85;;;22.54;37.04
80699;BME280;70062;51.658;5.658;2023-11-18T01:56:27;102226.94;;;22.66;37.31
80699;BME280;70062;51.658;5.658;2023-11-18T01:58:53;102226.73;;;22.97;37.21
80699;BME280;70062;51.658;5.658;2023-11-18T02:01:19;102225.24;;;23.19;36.81
80699;BME280;70062;51.658;5.658;2023-11-18T02:03:44;102221.25;;;23.31;36.72
80699;BME280;70062;51.658;5.658;2023-11-18T02:06:10;102221.46;;;23.32;36.33
80699;BME280;70062;51.658;5.658;2023-11-18T02:08:37;102222.39;;;23.26;36.33
80699;BME280;70062;51.658;5.658;2023-11-18T02:11:32;102221.10;;;23.13;36.37
80699;BME280;70062;51.658;5.658;2023-11-18T02:14:07;102221.52;;;22.91;36.53
80699;BME280;70062;51.658;5.658;2023-11-18T02:16:37;102225.25;;;22.69;36.82
80699;BME280;70062;51.658;5.658;2023-11-18T02:19:03;102226.25;;;22.37;37.35
80699;BME280;70062;51.658;5.658;2023-11-18T02:21:44;102230.86;;;22.17;37.78
80699;BME280;70062;51.658;5.658;2023-11-18T02:24:10;102233.98;;;22.38;38.01
80699;BME280;70062;51.658;5.658;2023-11-18T02:26:43;102235.52;;;22.74;37.74
80699;BME280;70062;51.658;5.658;2023-11-18T02:29:17;102236.89;;;23.33;37.15
80699;BME280;70062;51.658;5.658;2023-11-18T02:31:44;102233.11;;;23.97;36.30
80699;BME280;70062;51.658;5.658;2023-11-18T02:34:16;102229.85;;;24.57;35.46
80699;BME280;70062;51.658;5.658;2023-11-18T02:36:50;102239.39;;;25.02;34.60
80699;BME280;70062;51.658;5.658;2023-11-18T02:39:29;102244.75;;;25.24;33.97
80699;BME280;70062;51.658;5.658;2023-11-18T02:42:01;102241.85;;;25.33;33.55
80699;BME280;70062;51.658;5.658;2023-11-18T02:44:29;102240.21;;;25.27;33.43
80699;BME280;70062;51.658;5.658;2023-11-18T02:46:57;102234.29;;;25.15;33.39
80699;BME280;70062;51.658;5.658;2023-11-18T02:49:23;102226.29;;;24.94;33.45
80699;BME280;70062;51.658;5.658;2023-11-18T02:58:52;102213.91;;;24.03;34.35
80699;BME280;70062;51.658;5.658;2023-11-18T03:01:25;102209.33;;;23.68;34.82
80699;BME280;70062;51.658;5.658;2023-11-18T03:03:52;102201.23;;;23.38;35.18
80699;BME280;70062;51.658;5.658;2023-11-18T03:06:22;102197.73;;;23.10;35.54
80699;BME280;70062;51.658;5.658;2023-11-18T03:08:47;102195.21;;;22.80;35.84
80699;BME280;70062;51.658;5.658;2023-11-18T03:11:12;102194.22;;;22.51;36.46
80699;BME280;70062;51.658;5.658;2023-11-18T03:13:38;102192.53;;;22.23;36.91
80699;BME280;70062;51.658;5.658;2023-11-18T03:16:07;102193.36;;;21.92;37.30
80699;BME280;70062;51.658;5.658;2023-11-18T03:18:39;102195.22;;;21.62;38.10
80699;BME280;70062;51.658;5.658;2023-11-18T03:21:16;102201.30;;;21.67;38.49
80699;BME280;70062;51.658;5.658;2023-11-18T03:23:42;102195.89;;;22.17;38.52
80699;BME280;70062;51.658;5.658;2023-11-18T03:26:12;102203.36;;;22.94;37.73
80699;BME280;70062;51.658;5.658;2023-11-18T03:28:38;102198.81;;;23.70;36.74
80699;BME280;70062;51.658;5.658;2023-11-18T03:31:05;102199.92;;;24.27;35.64
80699;BME280;70062;51.658;5.658;2023-11-18T03:33:33;102189.86;;;24.60;34.98
80699;BME280;70062;51.658;5.658;2023-11-18T03:36:04;102198.23;;;24.83;34.42
80699;BME280;70062;51.658;5.658;2023-11-18T03:38:35;102192.27;;;24.86;34.03
80699;BME280;70062;51.658;5.658;2023-11-18T03:41:04;102192.56;;;24.79;33.87
80699;BME280;70062;51.658;5.658;2023-11-18T03:43:30;102200.33;;;24.69;33.77
80699;BME280;70062;51.658;5.658;2023-11-18T03:45:55;102195.00;;;24.50;33.97
80699;BME280;70062;51.658;5.658;2023-11-18T03:48:24;102186.76;;;24.27;34.10
80699;BME280;70062;51.658;5.658;2023-11-18T03:50:50;102181.77;;;24.00;34.33
80699;BME280;70062;51.658;5.658;2023-11-18T03:53:18;102177.66;;;23.72;34.73
80699;BME280;70062;51.658;5.658;2023-11-18T03:55:51;102171.01;;;23.43;35.06
80699;BME280;70062;51.658;5.658;2023-11-18T03:58:17;102161.52;;;23.12;35.45
80699;BME280;70062;51.658;5.658;2023-11-18T04:17:41;102117.48;;;22.47;38.15
80699;BME280;70062;51.658;5.658;2023-11-18T04:20:07;102114.79;;;23.35;37.03
80699;BME280;70062;51.658;5.658;2023-11-18T04:22:40;102112.35;;;24.03;35.96
80699;BME280;70062;51.658;5.658;2023-11-18T04:25:08;102120.93;;;24.51;35.13
80699;BME280;70062;51.658;5.658;2023-11-18T04:27:33;102124.58;;;24.79;34.46
80699;BME280;70062;51.658;5.658;2023-11-18T04:29:58;102122.95;;;24.90;34.04
80699;BME280;70062;51.658;5.658;2023-11-18T04:32:26;102125.92;;;24.90;33.84
80699;BME280;70062;51.658;5.658;2023-11-18T04:34:52;102118.61;;;24.79;33.76
80699;BME280;70062;51.658;5.658;2023-11-18T04:37:17;102108.95;;;24.62;33.76
80699;BME280;70062;51.658;5.658;2023-11-18T04:39:53;102104.82;;;24.39;34.01
80699;BME280;70062;51.658;5.658;2023-11-18T04:42:20;102092.12;;;24.12;34.10
80699;BME280;70062;51.658;5.658;2023-11-18T04:44:45;102083.67;;;23.84;34.43
80699;BME280;70062;51.658;5.658;2023-11-18T04:47:10;102086.39;;;23.55;34.74
80699;BME280;70062;51.658;5.658;2023-11-18T04:49:48;102085.38;;;23.26;35.16
80699;BME280;70062;51.658;5.658;2023-11-18T04:52:13;102076.88;;;22.91;35.53
80699;BME280;70062;51.658;5.658;2023-11-18T04:54:39;102076.06;;;22.50;36.33
80699;BME280;70062;51.658;5.658;2023-11-18T04:57:05;102084.44;;;22.32;36.90
80699;BME280;70062;51.658;5.658;2023-11-18T04:59:35;102083.98;;;22.52;36.95
80699;BME280;70062;51.658;5.658;2023-11-18T05:02:08;102079.65;;;22.80;36.75
80699;BME280;70062;51.658;5.658;2023-11-18T05:04:39;102075.13;;;23.00;36.49
80699;BME280;70062;51.658;5.658;2023-11-18T05:07:06;102070.00;;;23.08;36.30
80699;BME280;70062;51.658;5.658;2023-11-18T05:09:31;102072.42;;;23.06;36.23
80699;BME280;70062;51.658;5.658;2023-11-18T05:11:58;102075.25;;;22.97;36.20
80699;BME280;70062;51.658;5.658;2023-11-18T05:14:23;102082.16;;;22.83;36.39
80699;BME280;70062;51.658;5.658;2023-11-18T05:16:55;102070.40;;;22.63;36.50
80699;BME280;70062;51.658;5.658;2023-11-18T05:19:21;102064.50;;;22.41;36.73
80699;BME280;70062;51.658;5.658;2023-11-18T05:21:46;102063.50;;;22.10;37.04
80699;BME280;70062;51.658;5.658;2023-11-18T05:24:20;102054.42;;;21.87;37.85
80699;BME280;70062;51.658;5.658;2023-11-18T05:26:45;102057.80;;;22.13;38.06
80699;BME280;70062;51.658;5.658;2023-11-18T05:29:11;102053.08;;;22.73;37.58
80699;BME280;70062;51.658;5.658;2023-11-18T05:31:50;102052.20;;;23.55;36.67
80699;BME280;70062;51.658;5.658;2023-11-18T05:34:18;102049.04;;;24.29;35.65
80699;BME280;70062;51.658;5.658;2023-11-18T05:36:46;102044.15;;;24.79;34.71
80699;BME280;70062;51.658;5.658;2023-11-18T05:39:11;102038.47;;;25.07;33.96
80699;BME280;70062;51.658;5.658;2023-11-18T05:41:37;102035.95;;;25.21;33.53
80699;BME280;70062;51.658;5.658;2023-11-18T05:44:15;102038.05;;;25.21;33.33
80699;BME280;70062;51.658;5.658;2023-11-18T05:46:59;102042.00;;;25.10;33.08
80699;BME280;70062;51.658;5.658;2023-11-18T05:49:24;102045.34;;;24.93;33.27
80699;BME280;70062;51.658;5.658;2023-11-18T05:51:57;102042.49;;;24.71;33.29
80699;BME280;70062;51.658;5.658;2023-11-18T05:54:23;102032.73;;;24.44;33.52
80699;BME280;70062;51.658;5.658;2023-11-18T05:56:49;102021.79;;;24.13;33.84
80699;BME280;70062;51.658;5.658;2023-11-18T05:59:16;102029.70;;;23.86;34.28
80699;BME280;70062;51.658;5.658;2023-11-18T06:01:46;102025.23;;;23.57;34.54
80699;BME280;70062;51.658;5.658;2023-11-18T06:04:16;102022.63;;;23.24;35.02
80699;BME280;70062;51.658;5.658;2023-11-18T06:06:42;102021.27;;;22.95;35.38
80699;BME280;70062;51.658;5.658;2023-11-18T06:09:07;102016.31;;;22.64;35.85
80699;BME280;70062;51.658;5.658;2023-11-18T06:11:43;102021.48;;;22.32;36.34
80699;BME280;70062;51.658;5.658;2023-11-18T06:14:10;102023.47;;;22.02;36.93
80699;BME280;70062;51.658;5.658;2023-11-18T06:16:40;102021.67;;;21.68;37.41
80699;BME280;70062;51.658;5.658;2023-11-18T06:19:06;102009.12;;;21.69;38.20
80699;BME280;70062;51.658;5.658;2023-11-18T06:21:31;102000.58;;;22.20;37.96
80699;BME280;70062;51.658;5.658;2023-11-18T06:23:58;102002.09;;;23.00;37.32
80699;BME280;70062;51.658;5.658;2023-11-18T06:26:25;102012.02;;;23.90;36.15
80699;BME280;70062;51.658;5.658;2023-11-18T06:28:53;102013.56;;;24.60;34.87
80699;BME280;70062;51.658;5.658;2023-11-18T06:31:21;102023.73;;;25.13;34.02
80699;BME280;70062;51.658;5.658;2023-11-18T06:33:49;102018.69;;;25.44;33.29
80699;BME280;70062;51.658;5.658;2023-11-18T06:36:36;102008.92;;;25.57;32.85
80699;BME280;70062;51.658;5.658;2023-11-18T06:39:01;102000.48;;;25.56;32.61
80699;BME280;70062;51.658;5.658;2023-11-18T06:41:30;101999.00;;;25.45;32.52
80699;BME280;70062;51.658;5.658;2023-11-18T06:44:01;102002.75;;;25.25;32.51
80699;BME280;70062;51.658;5.658;2023-11-18T06:46:34;102001.16;;;25.01;32.71
80699;BME280;70062;51.658;5.658;2023-11-18T06:49:03;102009.67;;;24.73;32.96
80699;BME280;70062;51.658;5.658;2023-11-18T06:51:31;102010.96;;;24.44;33.26
80699;BME280;70062;51.658;5.658;2023-11-18T06:54:00;102016.50;;;24.12;33.69
80699;BME280;70062;51.658;5.658;2023-11-18T06:56:28;102008.39;;;23.79;33.86
80699;BME280;70062;51.658;5.658;2023-11-18T06:58:54;102006.86;;;23.47;34.33
80699;BME280;70062;51.658;5.658;2023-11-18T07:01:22;102002.17;;;23.16;34.96
80699;BME280;70062;51.658;5.658;2023-11-18T07:03:57;102004.59;;;22.83;35.25
80699;BME280;70062;51.658;5.658;2023-11-18T07:06:23;102003.30;;;22.51;35.78
80699;BME280;70062;51.658;5.658;2023-11-18T07:08:49;102002.36;;;22.22;36.17
80699;BME280;70062;51.658;5.658;2023-11-18T07:11:15;102004.40;;;21.93;36.80
80699;BME280;70062;51.658;5.658;2023-11-18T07:13:40;102000.26;;;21.64;37.31
80699;BME280;70062;51.658;5.658;2023-11-18T07:16:07;101998.38;;;21.35;37.80
80699;BME280;70062;51.658;5.658;2023-11-18T07:18:39;101995.00;;;21.04;38.55
80699;BME280;70062;51.658;5.658;2023-11-18T07:21:05;101992.59;;;21.05;39.19
80699;BME280;70062;51.658;5.658;2023-11-18T07:23:31;101986.31;;;21.50;39.25
80699;BME280;70062;51.658;5.658;2023-11-18T07:25:57;101977.80;;;22.18;38.37
80699;BME280;70062;51.658;5.658;2023-11-18T07:28:23;101972.88;;;22.82;37.51
80699;BME280;70062;51.658;5.658;2023-11-18T07:30:48;101978.41;;;23.32;36.65
80699;BME280;70062;51.658;5.658;2023-11-18T07:33:17;101979.58;;;23.63;35.93
80699;BME280;70062;51.658;5.658;2023-11-18T07:35:43;101984.17;;;23.79;35.45
80699;BME280;70062;51.658;5.658;2023-11-18T07:38:09;101986.48;;;23.81;35.28
80699;BME280;70062;51.658;5.658;2023-11-18T07:40:36;101991.30;;;23.74;35.15
80699;BME280;70062;51.658;5.658;2023-11-18T07:43:03;101996.80;;;23.65;35.06
80699;BME280;70062;51.658;5.658;2023-11-18T07:45:34;101996.36;;;23.48;35.16
80699;BME280;70062;51.658;5.658;2023-11-18T07:48:03;101999.88;;;23.26;35.32
80699;BME280;70062;51.658;5.658;2023-11-18T07:50:38;102010.36;;;23.02;35.71
80699;BME280;70062;51.658;5.658;2023-11-18T07:53:06;102014.78;;;22.75;36.00
80699;BME280;70062;51.658;5.658;2023-11-18T07:55:35;102014.42;;;22.48;36.29
80699;BME280;70062;51.658;5.658;2023-11-18T07:58:11;102016.50;;;22.20;36.64
80699;BME280;70062;51.658;5.658;2023-11-18T08:00:37;102020.04;;;21.89;37.25
80699;BME280;70062;51.658;5.658;2023-11-18T08:03:04;102025.42;;;21.56;37.88
80699;BME280;70062;51.658;5.658;2023-11-18T08:14:01;102015.70;;;23.52;36.79
80699;BME280;70062;51.658;5.658;2023-11-18T08:16:28;102007.61;;;24.02;35.75
80699;BME280;70062;51.658;5.658;2023-11-18T08:19:05;102012.60;;;24.33;35.11
80699;BME280;70062;51.658;5.658;2023-11-18T08:21:34;102007.83;;;24.47;34.81
80699;BME280;70062;51.658;5.658;2023-11-18T08:23:59;102001.33;;;24.46;34.62
80699;BME280;70062;51.658;5.658;2023-11-18T08:26:25;101999.51;;;24.39;34.54
80699;BME280;70062;51.658;5.658;2023-11-18T08:28:51;101997.02;;;24.24;34.52
80699;BME280;70062;51.658;5.658;2023-11-18T08:31:17;102000.10;;;24.04;34.69
80699;BME280;70062;51.658;5.658;2023-11-18T08:33:42;101998.35;;;23.76;35.02
80699;BME280;70062;51.658;5.658;2023-11-18T08:36:08;101993.61;;;23.40;35.53
80699;BME280;70062;51.658;5.658;2023-11-18T08:38:34;101989.72;;;23.38;35.90
80699;BME280;70062;51.658;5.658;2023-11-18T08:41:00;101988.56;;;23.79;35.94
80699;BME280;70062;51.658;5.658;2023-11-18T08:43:25;101979.21;;;24.47;35.34
80699;BME280;70062;51.658;5.658;2023-11-18T08:45:54;101974.61;;;25.23;34.33
80699;BME280;70062;51.658;5.658;2023-11-18T08:48:19;101960.34;;;25.79;33.39
80699;BME280;70062;51.658;5.658;2023-11-18T08:50:45;101944.64;;;26.13;32.64
80699;BME280;70062;51.658;5.658;2023-11-18T08:53:11;101945.75;;;26.31;32.32
80699;BME280;70062;51.658;5.658;2023-11-18T08:55:37;101943.48;;;26.34;32.10
80699;BME280;70062;51.658;5.658;2023-11-18T08:58:07;101935.35;;;26.27;31.75
80699;BME280;70062;51.658;5.658;2023-11-18T09:03:22;101925.71;;;25.85;31.88
80699;BME280;70062;51.658;5.658;2023-11-18T09:05:58;101929.62;;;25.56;32.21
80699;BME280;70062;51.658;5.658;2023-11-18T09:08:28;101928.58;;;25.24;32.51
80699;BME280;70062;51.658;5.658;2023-11-18T09:10:58;101929.55;;;24.89;32.86
80699;BME280;70062;51.658;5.658;2023-11-18T09:13:26;101926.11;;;24.55;33.32
80699;BME280;70062;51.658;5.658;2023-11-18T09:16:05;101938.36;;;24.20;33.71
80699;BME280;70062;51.658;5.658;2023-11-18T09:18:38;101933.37;;;23.83;34.33
80699;BME280;70062;51.658;5.658;2023-11-18T09:21:05;101932.41;;;23.49;34.74
80699;BME280;70062;51.658;5.658;2023-11-18T09:23:34;101923.35;;;23.16;35.20
80699;BME280;70062;51.658;5.658;2023-11-18T09:26:00;101915.20;;;22.76;35.76
80699;BME280;70062;51.658;5.658;2023-11-18T09:28:27;101903.95;;;22.44;36.67
80699;BME280;70062;51.658;5.658;2023-11-18T09:30:56;101899.73;;;22.53;37.16
80699;BME280;70062;51.658;5.658;2023-11-18T09:33:29;101901.98;;;23.03;36.87
80699;BME280;70062;51.658;5.658;2023-11-18T09:36:01;101889.30;;;23.79;36.12
80699;BME280;70062;51.658;5.658;2023-11-18T09:38:31;101877.27;;;24.52;35.25
80699;BME280;70062;51.658;5.658;2023-11-18T09:41:00;101875.02;;;25.03;34.24
80699;BME280;70062;51.658;5.658;2023-11-18T09:43:31;101869.75;;;25.35;33.55
80699;BME280;70062;51.658;5.658;2023-11-18T09:46:17;101859.79;;;25.50;33.23
80699;BME280;70062;51.658;5.658;2023-11-18T09:51:22;101863.96;;;25.38;32.98
80699;BME280;70062;51.658;5.658;2023-11-18T09:53:54;101852.10;;;25.18;33.00
80699;BME280;70062;51.658;5.658;2023-11-18T09:59:32;101855.08;;;24.64;33.45
80699;BME280;70062;51.658;5.658;2023-11-18T10:02:02;101847.92;;;24.27;33.85
80699;BME280;70062;51.658;5.658;2023-11-18T10:04:30;101842.59;;;23.87;34.24
80699;BME280;70062;51.658;5.658;2023-11-18T10:06:57;101847.58;;;23.49;35.06
80699;BME280;70062;51.658;5.658;2023-11-18T10:09:26;101840.71;;;23.47;35.44
80699;BME280;70062;51.658;5.658;2023-11-18T10:12:03;101828.16;;;23.66;35.45
80699;BME280;70062;51.658;5.658;2023-11-18T10:14:33;101824.10;;;23.79;35.19
80699;BME280;70062;51.658;5.658;2023-11-18T10:16:59;101812.73;;;23.82;35.00
80699;BME280;70062;51.658;5.658;2023-11-18T10:19:52;101802.69;;;23.77;35.11
80699;BME280;70062;51.658;5.658;2023-11-18T10:22:27;101805.70;;;23.63;35.15
80699;BME280;70062;51.658;5.658;2023-11-18T10:24:55;101806.58;;;23.36;35.49
80699;BME280;70062;51.658;5.658;2023-11-18T10:27:26;101801.54;;;23.10;35.87
80699;BME280;70062;51.658;5.658;2023-11-18T10:29:56;101807.59;;;23.17;36.37
80699;BME280;70062;51.658;5.658;2023-11-18T10:32:22;101793.77;;;23.64;36.10
80699;BME280;70062;51.658;5.658;2023-11-18T10:34:48;101799.20;;;24.36;35.46
80699;BME280;70062;51.658;5.658;2023-11-18T10:37:16;101795.80;;;25.06;34.41
80699;BME280;70062;51.658;5.658;2023-11-18T10:39:46;101796.36;;;25.58;33.53
80699;BME280;70062;51.658;5.658;2023-11-18T10:42:12;101790.09;;;25.88;32.84
80699;BME280;70062;51.658;5.658;2023-11-18T10:44:37;101777.61;;;25.99;32.58
80699;BME280;70062;51.658;5.658;2023-11-18T10:47:02;101773.91;;;25.97;32.21
80699;BME280;70062;51.658;5.658;2023-11-18T10:49:28;101772.31;;;25.86;32.16
80699;BME280;70062;51.658;5.658;2023-11-18T10:51:55;101774.74;;;25.68;32.23
80699;BME280;70062;51.658;5.658;2023-11-18T10:54:24;101777.31;;;25.43;32.39
80699;BME280;70062;51.658;5.658;2023-11-18T10:56:52;101779.83;;;25.08;32.71
80699;BME280;70062;51.658;5.658;2023-11-18T10:59:22;101778.70;;;24.62;33.20
80699;BME280;70062;51.658;5.658;2023-11-18T11:01:48;101771.35;;;24.40;33.78
80699;BME280;70062;51.658;5.658;2023-11-18T11:04:15;101766.32;;;24.48;33.94
80699;BME280;70062;51.658;5.658;2023-11-18T11:06:47;101770.09;;;24.63;33.85
80699;BME280;70062;51.658;5.658;2023-11-18T11:09:21;101774.86;;;24.69;33.63
80699;BME280;70062;51.658;5.658;2023-11-18T11:11:55;101775.90;;;24.66;33.62
80699;BME280;70062;51.658;5.658;2023-11-18T11:14:26;101782.87;;;24.56;33.76
80699;BME280;70062;51.658;5.658;2023-11-18T11:17:05;101775.35;;;24.36;34.05
80699;BME280;70062;51.658;5.658;2023-11-18T11:20:01;101755.73;;;24.00;34.29
80699;BME280;70062;51.658;5.658;2023-11-18T11:25:42;101726.32;;;24.09;35.08
80699;BME280;70062;51.658;5.658;2023-11-18T11:28:21;101720.48;;;24.46;34.97
80699;BME280;70062;51.658;5.658;2023-11-18T11:33:25;101711.27;;;25.65;33.71
80699;BME280;70062;51.658;5.658;2023-11-18T11:35:55;101706.52;;;26.11;32.96
80699;BME280;70062;51.658;5.658;2023-11-18T11:38:24;101697.19;;;26.35;32.52
80699;BME280;70062;51.658;5.658;2023-11-18T11:40:53;101695.77;;;26.44;32.17
80699;BME280;70062;51.658;5.658;2023-11-18T11:43:20;101681.52;;;26.40;32.03
80699;BME280;70062;51.658;5.658;2023-11-18T11:45:53;101653.02;;;26.23;32.04
80699;BME280;70062;51.658;5.658;2023-11-18T11:48:21;101637.56;;;26.06;31.95
80699;BME280;70062;51.658;5.658;2023-11-18T11:51:07;101635.83;;;25.79;32.28
80699;BME280;70062;51.658;5.658;2023-11-18T11:53:42;101637.39;;;25.47;32.48
80699;BME280;70062;51.658;5.658;2023-11-18T11:56:11;101635.42;;;25.14;32.89
80699;BME280;70062;51.658;5.658;2023-11-18T11:58:45;101619.86;;;24.80;33.31
80699;BME280;70062;51.658;5.658;2023-11-18T12:01:32;101607.98;;;24.47;33.73
80699;BME280;70062;51.658;5.658;2023-11-18T12:04:09;101602.66;;;24.09;34.21
80699;BME280;70062;51.658;5.658;2023-11-18T12:06:47;101593.95;;;23.66;34.76
80699;BME280;70062;51.658;5.658;2023-11-18T12:09:19;101585.40;;;23.28;35.63
80699;BME280;70062;51.658;5.658;2023-11-18T12:11:46;101574.69;;;23.25;36.15
80699;BME280;70062;51.658;5.658;2023-11-18T12:14:15;101561.88;;;23.44;36.06
80699;BME280;70062;51.658;5.658;2023-11-18T12:17:03;101558.52;;;23.60;35.93
80699;BME280;70062;51.658;5.658;2023-11-18T12:19:37;101556.80;;;23.65;35.65
80699;BME280;70062;51.658;5.658;2023-11-18T12:22:16;101556.60;;;23.60;35.70
80699;BME280;70062;51.658;5.658;2023-11-18T12:35:22;101508.58;;;22.47;37.02
80699;BME280;70062;51.658;5.658;2023-11-18T12:40:57;101485.54;;;22.52;37.94
80699;BME280;70062;51.658;5.658;2023-11-18T12:43:46;101484.96;;;22.79;37.54
80699;BME280;70062;51.658;5.658;2023-11-18T12:49:20;101473.73;;;22.96;37.04
80699;BME280;70062;51.658;5.658;2023-11-18T12:51:50;101454.24;;;22.88;37.23
80699;BME280;70062;51.658;5.658;2023-11-18T12:54:22;101436.95;;;22.75;37.26
80699;BME280;70062;51.658;5.658;2023-11-18T12:56:50;101411.94;;;22.58;37.39
80699;BME280;70062;51.658;5.658;2023-11-18T12:59:36;101390.92;;;22.38;37.74
80699;BME280;70062;51.658;5.658;2023-11-18T13:02:11;101386.16;;;22.16;38.15
80699;BME280;70062;51.658;5.658;2023-11-18T13:04:50;101388.13;;;21.92;38.64
80699;BME280;70062;51.658;5.658;2023-11-18T13:07:45;101383.69;;;21.70;38.78
80699;BME280;70062;51.658;5.658;2023-11-18T13:10:21;101378.60;;;21.40;39.12
80699;BME280;70062;51.658;5.658;2023-11-18T13:12:47;101364.77;;;21.14;40.03
80699;BME280;70062;51.658;5.658;2023-11-18T13:15:12;101363.50;;;21.11;40.48
80699;BME280;70062;51.658;5.658;2023-11-18T13:18:01;101350.66;;;21.40;40.36
80699;BME280;70062;51.658;5.658;2023-11-18T13:20:29;101351.46;;;21.79;39.95
80699;BME280;70062;51.658;5.658;2023-11-18T13:22:56;101357.12;;;21.99;39.67
80699;BME280;70062;51.658;5.658;2023-11-18T13:25:22;101357.11;;;22.15;39.08
80699;BME280;70062;51.658;5.658;2023-11-18T13:27:58;101347.17;;;22.18;39.04
80699;BME280;70062;51.658;5.658;2023-11-18T13:30:23;101340.32;;;22.14;39.06
80699;BME280;70062;51.658;5.658;2023-11-18T13:35:51;101355.27;;;21.90;39.11
80699;BME280;70062;51.658;5.658;2023-11-18T13:38:17;101346.98;;;21.69;39.25
80699;BME280;70062;51.658;5.658;2023-11-18T13:40:47;101339.27;;;21.52;39.60
80699;BME280;70062;51.658;5.658;2023-11-18T13:43:13;101331.87;;;21.32;39.73
80699;BME280;70062;51.658;5.658;2023-11-18T13:45:40;101319.63;;;21.07;40.10
80699;BME280;70062;51.658;5.658;2023-11-18T13:48:07;101315.17;;;20.88;40.77
80699;BME280;70062;51.658;5.658;2023-11-18T13:50:41;101304.61;;;20.94;41.24
80699;BME280;70062;51.658;5.658;2023-11-18T13:53:07;101311.73;;;21.29;41.05
80699;BME280;70062;51.658;5.658;2023-11-18T13:55:33;101319.65;;;21.63;40.52
80699;BME280;70062;51.658;5.658;2023-11-18T13:58:01;101314.83;;;21.85;40.15
80699;BME280;70062;51.658;5.658;2023-11-18T14:00:27;101308.95;;;21.91;39.93
80699;BME280;70062;51.658;5.658;2023-11-18T14:02:56;101303.46;;;22.01;39.91
80699;BME280;70062;51.658;5.658;2023-11-18T14:05:23;101295.95;;;22.41;39.66
80699;BME280;70062;51.658;5.658;2023-11-18T14:07:57;101266.85;;;23.11;38.82
80699;BME280;70062;51.658;5.658;2023-11-18T14:10:34;101243.42;;;23.92;37.59
80699;BME280;70062;51.658;5.658;2023-11-18T14:13:06;101229.77;;;24.46;36.51
80699;BME280;70062;51.658;5.658;2023-11-18T14:15:35;101233.54;;;24.80;35.74